sensor_id;sensor_type;location;lat;lon;timestamp;temperature;humidity
38090;DHT22;23904;52.322;10.232;2023-05-31T00:01:28;14.80;99.90
38090;DHT22;23904;52.322;10.232;2023-05-31T00:03:53;14.80;99.90
38090;DHT22;23904;52.322;10.232;2023-05-31T00:06:19;14.70;99.90
38090;DHT22;23904;52.322;10.232;2023-05-31T00:08:45;14.70;99.90
38090;DHT22;23904;52.322;10.232;2023-05-31T00:11:10;14.60;99.90
38090;DHT22;23904;52.322;10.232;2023-05-31T00:13:36;14.60;99.90
38090;DHT22;23904;52.322;10.232;2023-05-31T00:16:04;14.50;99.90
38090;DHT22;23904;52.322;10.232;2023-05-31T00:18:31;14.60;99.90
38090;DHT22;23904;52.322;10.232;2023-05-31T00:20:56;14.50;99.90
38090;DHT22;23904;52.322;10.232;2023-05-31T00:23:22;14.50;99.90
38090;DHT22;23904;52.322;10.232;2023-05-31T00:25:47;14.40;99.90
38090;DHT22;23904;52.322;10.232;2023-05-31T00:28:13;14.40;99.90
38090;DHT22;23904;52.322;10.232;2023-05-31T00:30:38;14.40;99.90
38090;DHT22;23904;52.322;10.232;2023-05-31T00:33:04;14.40;99.90
38090;DHT22;23904;52.322;10.232;2023-05-31T00:35:30;14.30;99.90
38090;DHT22;23904;52.322;10.232;2023-05-31T00:37:56;14.30;99.90
38090;DHT22;23904;52.322;10.232;2023-05-31T00:40:22;14.20;99.90
38090;DHT22;23904;52.322;10.232;2023-05-31T00:42:48;14.10;99.90
38090;DHT22;23904;52.322;10.232;2023-05-31T00:45:14;14.00;99.90
38090;DHT22;23904;52.322;10.232;2023-05-31T00:47:41;13.90;99.90
38090;DHT22;23904;52.322;10.232;2023-05-31T00:50:07;13.90;99.90
38090;DHT22;23904;52.322;10.232;2023-05-31T00:52:33;13.90;99.90
38090;DHT22;23904;52.322;10.232;2023-05-31T00:55:00;13.80;99.90
38090;DHT22;23904;52.322;10.232;2023-05-31T00:57:26;13.80;99.90
38090;DHT22;23904;52.322;10.232;2023-05-31T00:59:52;13.80;99.90
38090;DHT22;23904;52.322;10.232;2023-05-31T01:02:18;13.70;99.90
38090;DHT22;23904;52.322;10.232;2023-05-31T01:04:44;13.70;99.90
38090;DHT22;23904;52.322;10.232;2023-05-31T01:07:10;13.60;99.90
38090;DHT22;23904;52.322;10.232;2023-05-31T01:09:36;13.60;99.90
38090;DHT22;23904;52.322;10.232;2023-05-31T01:12:16;13.60;99.90
38090;DHT22;23904;52.322;10.232;2023-05-31T01:18:08;13.50;99.90
38090;DHT22;23904;52.322;10.232;2023-05-31T01:20:51;13.50;99.90
38090;DHT22;23904;52.322;10.232;2023-05-31T01:23:34;13.50;99.90
38090;DHT22;23904;52.322;10.232;2023-05-31T01:29:13;13.40;99.90
38090;DHT22;23904;52.322;10.232;2023-05-31T01:31:41;13.40;99.90
38090;DHT22;23904;52.322;10.232;2023-05-31T01:34:07;13.30;99.90
38090;DHT22;23904;52.322;10.232;2023-05-31T01:36:33;13.30;99.90
38090;DHT22;23904;52.322;10.232;2023-05-31T01:39:01;13.30;99.90
38090;DHT22;23904;52.322;10.232;2023-05-31T01:41:28;13.30;99.90
38090;DHT22;23904;52.322;10.232;2023-05-31T01:43:57;13.30;99.90
38090;DHT22;23904;52.322;10.232;2023-05-31T01:46:23;13.30;99.90
38090;DHT22;23904;52.322;10.232;2023-05-31T01:48:49;13.30;99.90
38090;DHT22;23904;52.322;10.232;2023-05-31T01:51:15;13.30;99.90
38090;DHT22;23904;52.322;10.232;2023-05-31T01:53:42;13.40;99.90
38090;DHT22;23904;52.322;10.232;2023-05-31T01:56:08;13.40;99.90
38090;DHT22;23904;52.322;10.232;2023-05-31T01:58:39;13.30;99.90
38090;DHT22;23904;52.322;10.232;2023-05-31T02:01:11;13.30;99.90
38090;DHT22;23904;52.322;10.232;2023-05-31T02:03:39;13.20;99.90
38090;DHT22;23904;52.322;10.232;2023-05-31T02:06:05;13.10;99.90
38090;DHT22;23904;52.322;10.232;2023-05-31T02:08:31;13.10;99.90
38090;DHT22;23904;52.322;10.232;2023-05-31T02:10:56;13.00;99.90
38090;DHT22;23904;52.322;10.232;2023-05-31T02:13:27;13.00;99.90
38090;DHT22;23904;52.322;10.232;2023-05-31T02:15:53;13.00;99.90
38090;DHT22;23904;52.322;10.232;2023-05-31T02:18:20;12.90;99.90
38090;DHT22;23904;52.322;10.232;2023-05-31T02:20:47;12.90;99.90
38090;DHT22;23904;52.322;10.232;2023-05-31T02:23:13;12.90;99.90
38090;DHT22;23904;52.322;10.232;2023-05-31T02:25:38;13.00;99.90
38090;DHT22;23904;52.322;10.232;2023-05-31T02:28:05;13.00;99.90
38090;DHT22;23904;52.322;10.232;2023-05-31T02:30:31;13.00;99.90
38090;DHT22;23904;52.322;10.232;2023-05-31T02:32:56;12.90;99.90
38090;DHT22;23904;52.322;10.232;2023-05-31T02:35:22;12.90;99.90
38090;DHT22;23904;52.322;10.232;2023-05-31T02:37:48;12.80;99.90
38090;DHT22;23904;52.322;10.232;2023-05-31T02:40:13;12.80;99.90
38090;DHT22;23904;52.322;10.232;2023-05-31T02:42:40;12.70;99.90
38090;DHT22;23904;52.322;10.232;2023-05-31T02:45:08;12.70;99.90
38090;DHT22;23904;52.322;10.232;2023-05-31T02:47:36;12.70;99.90
38090;DHT22;23904;52.322;10.232;2023-05-31T02:50:07;12.60;99.90
38090;DHT22;23904;52.322;10.232;2023-05-31T02:52:35;12.60;99.90
38090;DHT22;23904;52.322;10.232;2023-05-31T02:55:00;12.60;99.90
38090;DHT22;23904;52.322;10.232;2023-05-31T02:57:26;12.60;99.90
38090;DHT22;23904;52.322;10.232;2023-05-31T02:59:57;12.50;99.90
38090;DHT22;23904;52.322;10.232;2023-05-31T03:02:23;12.50;99.90
38090;DHT22;23904;52.322;10.232;2023-05-31T03:04:50;12.50;99.90
38090;DHT22;23904;52.322;10.232;2023-05-31T03:07:16;12.50;99.90
38090;DHT22;23904;52.322;10.232;2023-05-31T03:09:42;12.60;99.90
38090;DHT22;23904;52.322;10.232;2023-05-31T03:12:08;12.60;99.90
38090;DHT22;23904;52.322;10.232;2023-05-31T03:14:34;12.50;99.90
38090;DHT22;23904;52.322;10.232;2023-05-31T03:16:59;12.60;99.90
38090;DHT22;23904;52.322;10.232;2023-05-31T03:19:26;12.60;99.90
38090;DHT22;23904;52.322;10.232;2023-05-31T03:21:51;12.50;99.90
38090;DHT22;23904;52.322;10.232;2023-05-31T03:24:17;12.50;99.90
38090;DHT22;23904;52.322;10.232;2023-05-31T03:26:42;12.50;99.90
38090;DHT22;23904;52.322;10.232;2023-05-31T03:29:08;12.50;99.90
38090;DHT22;23904;52.322;10.232;2023-05-31T03:31:33;12.50;99.90
38090;DHT22;23904;52.322;10.232;2023-05-31T03:33:59;12.40;99.90
38090;DHT22;23904;52.322;10.232;2023-05-31T03:36:25;12.40;99.90
38090;DHT22;23904;52.322;10.232;2023-05-31T03:38:50;12.40;99.90
38090;DHT22;23904;52.322;10.232;2023-05-31T03:41:16;12.40;99.90
38090;DHT22;23904;52.322;10.232;2023-05-31T03:43:42;12.40;99.90
38090;DHT22;23904;52.322;10.232;2023-05-31T03:46:08;12.40;99.90
38090;DHT22;23904;52.322;10.232;2023-05-31T03:48:33;12.50;99.90
38090;DHT22;23904;52.322;10.232;2023-05-31T03:50:59;12.50;99.90
38090;DHT22;23904;52.322;10.232;2023-05-31T03:53:24;12.40;99.90
38090;DHT22;23904;52.322;10.232;2023-05-31T03:55:51;12.40;99.90
38090;DHT22;23904;52.322;10.232;2023-05-31T03:58:17;12.40;99.90
38090;DHT22;23904;52.322;10.232;2023-05-31T04:00:43;12.50;99.90
38090;DHT22;23904;52.322;10.232;2023-05-31T04:03:08;12.50;99.90
38090;DHT22;23904;52.322;10.232;2023-05-31T04:05:37;12.60;99.90
38090;DHT22;23904;52.322;10.232;2023-05-31T04:08:03;12.60;99.90
38090;DHT22;23904;52.322;10.232;2023-05-31T04:10:30;12.60;99.90
38090;DHT22;23904;52.322;10.232;2023-05-31T04:12:56;12.70;99.90
38090;DHT22;23904;52.322;10.232;2023-05-31T04:15:21;12.70;99.90
38090;DHT22;23904;52.322;10.232;2023-05-31T04:17:47;12.70;99.90
38090;DHT22;23904;52.322;10.232;2023-05-31T04:20:12;12.80;99.90
38090;DHT22;23904;52.322;10.232;2023-05-31T04:22:38;12.80;99.90
38090;DHT22;23904;52.322;10.232;2023-05-31T04:25:04;12.80;99.90
38090;DHT22;23904;52.322;10.232;2023-05-31T04:27:31;12.80;99.90
38090;DHT22;23904;52.322;10.232;2023-05-31T04:29:57;12.80;99.90
38090;DHT22;23904;52.322;10.232;2023-05-31T04:32:24;12.90;99.90
38090;DHT22;23904;52.322;10.232;2023-05-31T04:34:50;12.90;99.90
38090;DHT22;23904;52.322;10.232;2023-05-31T04:37:25;12.90;99.90
38090;DHT22;23904;52.322;10.232;2023-05-31T04:39:55;12.90;99.90
38090;DHT22;23904;52.322;10.232;2023-05-31T04:42:22;13.00;99.90
38090;DHT22;23904;52.322;10.232;2023-05-31T04:44:56;13.10;99.90
38090;DHT22;23904;52.322;10.232;2023-05-31T04:47:24;13.20;99.90
38090;DHT22;23904;52.322;10.232;2023-05-31T04:49:53;13.20;99.90
38090;DHT22;23904;52.322;10.232;2023-05-31T04:52:25;13.30;99.90
38090;DHT22;23904;52.322;10.232;2023-05-31T04:54:54;13.30;99.90
38090;DHT22;23904;52.322;10.232;2023-05-31T04:57:21;13.30;99.90
38090;DHT22;23904;52.322;10.232;2023-05-31T04:59:47;13.30;99.90
38090;DHT22;23904;52.322;10.232;2023-05-31T05:02:13;13.40;99.90
38090;DHT22;23904;52.322;10.232;2023-05-31T05:04:39;13.40;99.90
38090;DHT22;23904;52.322;10.232;2023-05-31T05:07:04;13.50;99.90
38090;DHT22;23904;52.322;10.232;2023-05-31T05:09:30;13.50;99.90
38090;DHT22;23904;52.322;10.232;2023-05-31T05:11:56;13.50;99.90
38090;DHT22;23904;52.322;10.232;2023-05-31T05:14:22;13.50;99.90
38090;DHT22;23904;52.322;10.232;2023-05-31T05:16:47;13.60;99.90
38090;DHT22;23904;52.322;10.232;2023-05-31T05:19:13;13.60;99.90
38090;DHT22;23904;52.322;10.232;2023-05-31T05:21:38;13.60;99.90
38090;DHT22;23904;52.322;10.232;2023-05-31T05:24:04;13.60;99.90
38090;DHT22;23904;52.322;10.232;2023-05-31T05:26:30;13.70;99.90
38090;DHT22;23904;52.322;10.232;2023-05-31T05:28:56;13.70;99.90
38090;DHT22;23904;52.322;10.232;2023-05-31T05:31:21;13.80;99.90
38090;DHT22;23904;52.322;10.232;2023-05-31T05:33:47;13.90;99.90
38090;DHT22;23904;52.322;10.232;2023-05-31T05:36:13;13.80;99.90
38090;DHT22;23904;52.322;10.232;2023-05-31T05:38:38;13.90;99.90
38090;DHT22;23904;52.322;10.232;2023-05-31T05:41:04;13.90;99.90
38090;DHT22;23904;52.322;10.232;2023-05-31T05:43:30;13.90;99.90
38090;DHT22;23904;52.322;10.232;2023-05-31T05:45:56;13.90;99.90
38090;DHT22;23904;52.322;10.232;2023-05-31T05:48:22;13.90;99.90
38090;DHT22;23904;52.322;10.232;2023-05-31T05:50:47;14.00;99.90
38090;DHT22;23904;52.322;10.232;2023-05-31T05:53:13;14.00;99.90
38090;DHT22;23904;52.322;10.232;2023-05-31T05:55:38;14.10;99.90
38090;DHT22;23904;52.322;10.232;2023-05-31T05:58:04;14.20;99.90
38090;DHT22;23904;52.322;10.232;2023-05-31T06:00:30;14.30;99.90
38090;DHT22;23904;52.322;10.232;2023-05-31T06:02:55;14.40;99.90
38090;DHT22;23904;52.322;10.232;2023-05-31T06:05:21;14.40;99.90
38090;DHT22;23904;52.322;10.232;2023-05-31T06:07:51;14.60;99.90
38090;DHT22;23904;52.322;10.232;2023-05-31T06:10:17;14.70;99.90
38090;DHT22;23904;52.322;10.232;2023-05-31T06:12:43;14.70;99.90
38090;DHT22;23904;52.322;10.232;2023-05-31T06:15:09;14.80;99.90
38090;DHT22;23904;52.322;10.232;2023-05-31T06:17:35;14.80;99.90
38090;DHT22;23904;52.322;10.232;2023-05-31T06:20:01;14.90;99.90
38090;DHT22;23904;52.322;10.232;2023-05-31T06:22:30;14.90;99.90
38090;DHT22;23904;52.322;10.232;2023-05-31T06:24:57;14.90;99.90
38090;DHT22;23904;52.322;10.232;2023-05-31T06:27:23;15.00;99.90
38090;DHT22;23904;52.322;10.232;2023-05-31T06:29:49;15.10;99.90
38090;DHT22;23904;52.322;10.232;2023-05-31T06:32:20;15.10;99.90
38090;DHT22;23904;52.322;10.232;2023-05-31T06:34:46;15.20;99.90
38090;DHT22;23904;52.322;10.232;2023-05-31T06:37:11;15.30;99.90
38090;DHT22;23904;52.322;10.232;2023-05-31T06:39:37;15.40;99.90
38090;DHT22;23904;52.322;10.232;2023-05-31T06:42:03;15.40;99.90
38090;DHT22;23904;52.322;10.232;2023-05-31T06:44:29;15.40;99.90
38090;DHT22;23904;52.322;10.232;2023-05-31T06:46:54;15.40;99.90
38090;DHT22;23904;52.322;10.232;2023-05-31T06:49:21;15.40;99.90
38090;DHT22;23904;52.322;10.232;2023-05-31T06:51:46;15.50;99.90
38090;DHT22;23904;52.322;10.232;2023-05-31T06:54:12;15.70;99.90
38090;DHT22;23904;52.322;10.232;2023-05-31T06:56:37;15.80;99.90
38090;DHT22;23904;52.322;10.232;2023-05-31T06:59:03;15.80;99.90
38090;DHT22;23904;52.322;10.232;2023-05-31T07:01:28;15.90;99.90
38090;DHT22;23904;52.322;10.232;2023-05-31T07:03:54;15.90;99.90
38090;DHT22;23904;52.322;10.232;2023-05-31T07:06:19;16.00;99.90
38090;DHT22;23904;52.322;10.232;2023-05-31T07:08:45;16.00;99.90
38090;DHT22;23904;52.322;10.232;2023-05-31T07:11:11;16.00;99.90
38090;DHT22;23904;52.322;10.232;2023-05-31T07:13:37;16.00;99.90
38090;DHT22;23904;52.322;10.232;2023-05-31T07:16:03;16.10;99.90
38090;DHT22;23904;52.322;10.232;2023-05-31T07:18:29;16.20;99.90
38090;DHT22;23904;52.322;10.232;2023-05-31T07:20:54;16.30;99.90
38090;DHT22;23904;52.322;10.232;2023-05-31T07:23:22;16.40;99.90
38090;DHT22;23904;52.322;10.232;2023-05-31T07:25:49;16.40;99.90
38090;DHT22;23904;52.322;10.232;2023-05-31T07:28:15;16.40;99.90
38090;DHT22;23904;52.322;10.232;2023-05-31T07:30:40;16.50;99.90
38090;DHT22;23904;52.322;10.232;2023-05-31T07:33:06;16.60;99.90
38090;DHT22;23904;52.322;10.232;2023-05-31T07:35:31;16.70;99.90
38090;DHT22;23904;52.322;10.232;2023-05-31T07:37:57;16.80;99.90
38090;DHT22;23904;52.322;10.232;2023-05-31T07:40:22;16.90;99.90
38090;DHT22;23904;52.322;10.232;2023-05-31T07:42:48;17.00;99.90
38090;DHT22;23904;52.322;10.232;2023-05-31T07:45:13;17.10;99.90
38090;DHT22;23904;52.322;10.232;2023-05-31T07:47:39;17.20;99.90
38090;DHT22;23904;52.322;10.232;2023-05-31T07:50:05;17.40;99.90
38090;DHT22;23904;52.322;10.232;2023-05-31T07:52:31;17.40;99.90
38090;DHT22;23904;52.322;10.232;2023-05-31T07:54:57;17.50;99.90
38090;DHT22;23904;52.322;10.232;2023-05-31T07:57:23;17.70;99.90
38090;DHT22;23904;52.322;10.232;2023-05-31T07:59:49;17.90;99.90
38090;DHT22;23904;52.322;10.232;2023-05-31T08:02:16;18.00;99.30
38090;DHT22;23904;52.322;10.232;2023-05-31T08:04:42;18.10;99.10
38090;DHT22;23904;52.322;10.232;2023-05-31T08:07:08;18.30;98.60
38090;DHT22;23904;52.322;10.232;2023-05-31T08:09:34;18.50;98.70
38090;DHT22;23904;52.322;10.232;2023-05-31T08:12:00;18.60;98.60
38090;DHT22;23904;52.322;10.232;2023-05-31T08:14:28;18.80;98.00
38090;DHT22;23904;52.322;10.232;2023-05-31T08:16:54;19.00;98.40
38090;DHT22;23904;52.322;10.232;2023-05-31T08:19:20;19.10;98.00
38090;DHT22;23904;52.322;10.232;2023-05-31T08:21:46;19.30;97.70
38090;DHT22;23904;52.322;10.232;2023-05-31T08:24:12;19.40;97.80
38090;DHT22;23904;52.322;10.232;2023-05-31T08:26:38;19.40;97.90
38090;DHT22;23904;52.322;10.232;2023-05-31T08:29:03;19.70;96.70
38090;DHT22;23904;52.322;10.232;2023-05-31T08:31:29;19.90;95.90
38090;DHT22;23904;52.322;10.232;2023-05-31T08:33:57;20.00;95.00
38090;DHT22;23904;52.322;10.232;2023-05-31T08:36:24;20.20;94.60
38090;DHT22;23904;52.322;10.232;2023-05-31T08:38:51;20.50;94.10
38090;DHT22;23904;52.322;10.232;2023-05-31T08:41:18;20.80;92.40
38090;DHT22;23904;52.322;10.232;2023-05-31T08:43:44;21.10;92.00
38090;DHT22;23904;52.322;10.232;2023-05-31T08:46:13;21.50;90.20
38090;DHT22;23904;52.322;10.232;2023-05-31T08:51:28;23.00;81.40
38090;DHT22;23904;52.322;10.232;2023-05-31T08:53:56;23.80;75.20
38090;DHT22;23904;52.322;10.232;2023-05-31T08:56:22;24.40;72.90
38090;DHT22;23904;52.322;10.232;2023-05-31T08:58:50;25.20;72.00
38090;DHT22;23904;52.322;10.232;2023-05-31T09:01:17;26.20;68.00
38090;DHT22;23904;52.322;10.232;2023-05-31T09:03:44;27.00;64.00
38090;DHT22;23904;52.322;10.232;2023-05-31T09:06:10;28.00;59.20
38090;DHT22;23904;52.322;10.232;2023-05-31T09:08:36;28.10;57.60
38090;DHT22;23904;52.322;10.232;2023-05-31T09:11:02;28.90;53.10
38090;DHT22;23904;52.322;10.232;2023-05-31T09:13:28;29.10;52.50
38090;DHT22;23904;52.322;10.232;2023-05-31T09:15:54;29.40;52.40
38090;DHT22;23904;52.322;10.232;2023-05-31T09:18:21;30.00;52.40
38090;DHT22;23904;52.322;10.232;2023-05-31T09:20:48;30.80;49.80
38090;DHT22;23904;52.322;10.232;2023-05-31T09:23:17;31.50;48.90
38090;DHT22;23904;52.322;10.232;2023-05-31T09:25:52;31.70;47.40
38090;DHT22;23904;52.322;10.232;2023-05-31T09:28:20;31.70;46.10
38090;DHT22;23904;52.322;10.232;2023-05-31T09:31:06;31.20;47.20
38090;DHT22;23904;52.322;10.232;2023-05-31T09:33:43;31.20;46.80
38090;DHT22;23904;52.322;10.232;2023-05-31T09:36:11;30.80;47.70
38090;DHT22;23904;52.322;10.232;2023-05-31T09:38:38;30.80;47.60
38090;DHT22;23904;52.322;10.232;2023-05-31T09:43:46;30.30;46.70
38090;DHT22;23904;52.322;10.232;2023-05-31T09:46:17;29.60;48.30
38090;DHT22;23904;52.322;10.232;2023-05-31T09:48:44;28.80;48.70
38090;DHT22;23904;52.322;10.232;2023-05-31T09:51:12;28.80;48.10
38090;DHT22;23904;52.322;10.232;2023-05-31T09:53:44;29.30;48.10
38090;DHT22;23904;52.322;10.232;2023-05-31T09:56:20;30.10;47.50
38090;DHT22;23904;52.322;10.232;2023-05-31T09:58:49;31.30;44.70
38090;DHT22;23904;52.322;10.232;2023-05-31T10:01:16;31.80;44.70
38090;DHT22;23904;52.322;10.232;2023-05-31T10:03:43;31.80;43.50
38090;DHT22;23904;52.322;10.232;2023-05-31T10:06:10;31.80;42.70
38090;DHT22;23904;52.322;10.232;2023-05-31T10:08:37;32.00;42.30
38090;DHT22;23904;52.322;10.232;2023-05-31T10:11:03;33.10;40.80
38090;DHT22;23904;52.322;10.232;2023-05-31T10:13:30;32.50;41.20
38090;DHT22;23904;52.322;10.232;2023-05-31T16:52:59;24.40;52.90
38090;DHT22;23904;52.322;10.232;2023-05-31T16:55:24;24.30;53.70
38090;DHT22;23904;52.322;10.232;2023-05-31T16:57:50;24.30;54.30
38090;DHT22;23904;52.322;10.232;2023-05-31T17:00:16;24.40;54.20
38090;DHT22;23904;52.322;10.232;2023-05-31T17:02:44;24.40;54.50
38090;DHT22;23904;52.322;10.232;2023-05-31T17:05:10;24.40;54.80
38090;DHT22;23904;52.322;10.232;2023-05-31T17:07:38;24.40;54.90
38090;DHT22;23904;52.322;10.232;2023-05-31T17:10:05;24.40;55.00
38090;DHT22;23904;52.322;10.232;2023-05-31T17:12:32;24.40;54.50
38090;DHT22;23904;52.322;10.232;2023-05-31T17:14:57;24.40;55.30
38090;DHT22;23904;52.322;10.232;2023-05-31T17:17:23;24.50;55.60
38090;DHT22;23904;52.322;10.232;2023-05-31T17:19:49;24.40;54.60
38090;DHT22;23904;52.322;10.232;2023-05-31T17:22:15;24.40;54.70
38090;DHT22;23904;52.322;10.232;2023-05-31T17:24:44;24.40;54.60
38090;DHT22;23904;52.322;10.232;2023-05-31T17:27:10;24.30;54.20
38090;DHT22;23904;52.322;10.232;2023-05-31T17:29:35;24.30;54.10
38090;DHT22;23904;52.322;10.232;2023-05-31T17:32:03;24.20;54.50
38090;DHT22;23904;52.322;10.232;2023-05-31T17:34:34;24.20;54.50
38090;DHT22;23904;52.322;10.232;2023-05-31T17:37:01;24.20;54.40
38090;DHT22;23904;52.322;10.232;2023-05-31T17:39:29;24.10;54.90
38090;DHT22;23904;52.322;10.232;2023-05-31T17:41:55;24.10;54.80
38090;DHT22;23904;52.322;10.232;2023-05-31T17:44:20;24.10;54.90
38090;DHT22;23904;52.322;10.232;2023-05-31T17:46:47;24.00;55.20
38090;DHT22;23904;52.322;10.232;2023-05-31T17:49:13;24.00;55.50
38090;DHT22;23904;52.322;10.232;2023-05-31T17:51:38;24.00;55.60
38090;DHT22;23904;52.322;10.232;2023-05-31T17:54:04;23.90;55.90
38090;DHT22;23904;52.322;10.232;2023-05-31T17:56:30;23.90;56.00
38090;DHT22;23904;52.322;10.232;2023-05-31T17:58:55;23.90;56.20
38090;DHT22;23904;52.322;10.232;2023-05-31T18:01:21;23.80;56.10
38090;DHT22;23904;52.322;10.232;2023-05-31T18:03:47;23.80;56.70
38090;DHT22;23904;52.322;10.232;2023-05-31T18:06:12;23.80;56.80
38090;DHT22;23904;52.322;10.232;2023-05-31T18:08:38;23.80;56.90
38090;DHT22;23904;52.322;10.232;2023-05-31T18:11:04;23.80;56.90
38090;DHT22;23904;52.322;10.232;2023-05-31T18:13:30;23.70;57.00
38090;DHT22;23904;52.322;10.232;2023-05-31T18:15:59;23.70;56.60
38090;DHT22;23904;52.322;10.232;2023-05-31T18:18:24;23.60;56.70
38090;DHT22;23904;52.322;10.232;2023-05-31T18:20:51;23.60;56.30
38090;DHT22;23904;52.322;10.232;2023-05-31T18:23:17;23.50;56.40
38090;DHT22;23904;52.322;10.232;2023-05-31T18:25:43;23.50;57.00
38090;DHT22;23904;52.322;10.232;2023-05-31T18:28:09;23.40;57.20
38090;DHT22;23904;52.322;10.232;2023-05-31T18:30:35;23.40;58.20
38090;DHT22;23904;52.322;10.232;2023-05-31T18:33:00;23.30;57.80
38090;DHT22;23904;52.322;10.232;2023-05-31T18:35:26;23.30;58.40
38090;DHT22;23904;52.322;10.232;2023-05-31T18:37:52;23.30;58.70
38090;DHT22;23904;52.322;10.232;2023-05-31T18:40:19;23.20;59.60
38090;DHT22;23904;52.322;10.232;2023-05-31T18:42:48;23.10;59.70
38090;DHT22;23904;52.322;10.232;2023-05-31T18:45:13;23.10;60.10
38090;DHT22;23904;52.322;10.232;2023-05-31T18:47:41;23.00;60.40
38090;DHT22;23904;52.322;10.232;2023-05-31T18:50:08;23.00;60.80
38090;DHT22;23904;52.322;10.232;2023-05-31T18:52:35;22.90;60.70
38090;DHT22;23904;52.322;10.232;2023-05-31T18:55:01;22.90;61.30
38090;DHT22;23904;52.322;10.232;2023-05-31T18:57:27;22.80;61.40
38090;DHT22;23904;52.322;10.232;2023-05-31T18:59:53;22.70;61.90
38090;DHT22;23904;52.322;10.232;2023-05-31T19:02:18;22.60;62.30
38090;DHT22;23904;52.322;10.232;2023-05-31T19:04:44;22.60;63.00
38090;DHT22;23904;52.322;10.232;2023-05-31T19:07:10;22.50;63.50
38090;DHT22;23904;52.322;10.232;2023-05-31T19:09:35;22.40;63.60
38090;DHT22;23904;52.322;10.232;2023-05-31T19:12:01;22.30;63.60
38090;DHT22;23904;52.322;10.232;2023-05-31T19:14:27;22.30;64.70
38090;DHT22;23904;52.322;10.232;2023-05-31T19:16:53;22.20;64.90
38090;DHT22;23904;52.322;10.232;2023-05-31T19:19:19;22.10;65.10
38090;DHT22;23904;52.322;10.232;2023-05-31T19:21:45;22.00;65.00
38090;DHT22;23904;52.322;10.232;2023-05-31T19:24:10;21.90;65.00
38090;DHT22;23904;52.322;10.232;2023-05-31T19:26:38;21.90;65.10
38090;DHT22;23904;52.322;10.232;2023-05-31T19:29:04;21.80;65.30
38090;DHT22;23904;52.322;10.232;2023-05-31T19:31:29;21.70;65.60
38090;DHT22;23904;52.322;10.232;2023-05-31T19:33:55;21.70;66.10
38090;DHT22;23904;52.322;10.232;2023-05-31T19:36:26;21.60;66.30
38090;DHT22;23904;52.322;10.232;2023-05-31T19:38:53;21.60;66.80
38090;DHT22;23904;52.322;10.232;2023-05-31T19:41:19;21.50;67.20
38090;DHT22;23904;52.322;10.232;2023-05-31T19:43:47;21.40;67.70
38090;DHT22;23904;52.322;10.232;2023-05-31T19:46:18;21.30;68.20
38090;DHT22;23904;52.322;10.232;2023-05-31T19:48:45;21.30;68.80
38090;DHT22;23904;52.322;10.232;2023-05-31T19:51:10;21.10;69.50
38090;DHT22;23904;52.322;10.232;2023-05-31T19:53:38;21.00;70.20
38090;DHT22;23904;52.322;10.232;2023-05-31T19:56:03;20.90;70.90
38090;DHT22;23904;52.322;10.232;2023-05-31T19:58:29;20.80;71.30
38090;DHT22;23904;52.322;10.232;2023-05-31T20:00:56;20.70;71.80
38090;DHT22;23904;52.322;10.232;2023-05-31T20:03:22;20.70;72.30
38090;DHT22;23904;52.322;10.232;2023-05-31T20:05:48;20.60;72.40
38090;DHT22;23904;52.322;10.232;2023-05-31T20:08:14;20.60;72.90
38090;DHT22;23904;52.322;10.232;2023-05-31T20:10:41;20.50;73.00
38090;DHT22;23904;52.322;10.232;2023-05-31T20:13:08;20.40;73.50
38090;DHT22;23904;52.322;10.232;2023-05-31T20:15:38;20.40;73.90
38090;DHT22;23904;52.322;10.232;2023-05-31T20:18:05;20.30;74.10
38090;DHT22;23904;52.322;10.232;2023-05-31T20:20:32;20.20;74.50
38090;DHT22;23904;52.322;10.232;2023-05-31T20:22:57;20.20;74.40
38090;DHT22;23904;52.322;10.232;2023-05-31T20:25:24;20.00;74.80
38090;DHT22;23904;52.322;10.232;2023-05-31T20:27:50;19.90;74.90
38090;DHT22;23904;52.322;10.232;2023-05-31T20:30:16;19.90;75.50
38090;DHT22;23904;52.322;10.232;2023-05-31T20:32:42;19.80;75.60
38090;DHT22;23904;52.322;10.232;2023-05-31T20:35:08;19.80;75.90
38090;DHT22;23904;52.322;10.232;2023-05-31T20:37:33;19.70;76.60
38090;DHT22;23904;52.322;10.232;2023-05-31T20:39:59;19.60;77.10
38090;DHT22;23904;52.322;10.232;2023-05-31T20:42:25;19.60;77.40
38090;DHT22;23904;52.322;10.232;2023-05-31T20:44:51;19.60;78.00
38090;DHT22;23904;52.322;10.232;2023-05-31T20:47:18;19.50;78.40
38090;DHT22;23904;52.322;10.232;2023-05-31T20:49:44;19.40;78.70
38090;DHT22;23904;52.322;10.232;2023-05-31T20:52:10;19.40;79.40
38090;DHT22;23904;52.322;10.232;2023-05-31T20:54:36;19.30;79.80
38090;DHT22;23904;52.322;10.232;2023-05-31T20:57:02;19.20;80.20
38090;DHT22;23904;52.322;10.232;2023-05-31T20:59:28;19.20;80.40
38090;DHT22;23904;52.322;10.232;2023-05-31T21:01:56;19.10;80.80
38090;DHT22;23904;52.322;10.232;2023-05-31T21:04:21;19.00;81.20
38090;DHT22;23904;52.322;10.232;2023-05-31T21:06:47;19.00;81.90
38090;DHT22;23904;52.322;10.232;2023-05-31T21:09:12;18.90;82.00
38090;DHT22;23904;52.322;10.232;2023-05-31T21:11:38;18.90;82.80
38090;DHT22;23904;52.322;10.232;2023-05-31T21:14:04;18.80;83.20
38090;DHT22;23904;52.322;10.232;2023-05-31T21:16:29;18.70;83.80
38090;DHT22;23904;52.322;10.232;2023-05-31T21:18:55;18.70;84.30
38090;DHT22;23904;52.322;10.232;2023-05-31T21:21:21;18.60;84.90
38090;DHT22;23904;52.322;10.232;2023-05-31T21:23:46;18.60;85.20
38090;DHT22;23904;52.322;10.232;2023-05-31T21:26:12;18.50;85.90
38090;DHT22;23904;52.322;10.232;2023-05-31T21:28:37;18.40;86.30
38090;DHT22;23904;52.322;10.232;2023-05-31T21:31:03;18.40;86.70
38090;DHT22;23904;52.322;10.232;2023-05-31T21:33:29;18.30;87.40
38090;DHT22;23904;52.322;10.232;2023-05-31T21:35:54;18.30;87.90
38090;DHT22;23904;52.322;10.232;2023-05-31T21:38:20;18.20;88.50
38090;DHT22;23904;52.322;10.232;2023-05-31T21:40:45;18.20;89.10
38090;DHT22;23904;52.322;10.232;2023-05-31T21:43:11;18.10;89.60
38090;DHT22;23904;52.322;10.232;2023-05-31T21:45:36;18.00;90.00
38090;DHT22;23904;52.322;10.232;2023-05-31T21:48:02;18.00;90.60
38090;DHT22;23904;52.322;10.232;2023-05-31T21:50:28;18.00;90.80
38090;DHT22;23904;52.322;10.232;2023-05-31T21:52:53;18.00;91.20
38090;DHT22;23904;52.322;10.232;2023-05-31T21:55:19;17.90;91.50
38090;DHT22;23904;52.322;10.232;2023-05-31T21:57:45;17.80;92.10
38090;DHT22;23904;52.322;10.232;2023-05-31T22:00:11;17.70;92.50